sensor_id;sensor_type;location;lat;lon;timestamp;temperature;humidity
74520;DHT22;63002;48.134;-1.948;2024-02-26T06:02:31;17.70;60.10
74520;DHT22;63002;48.134;-1.948;2024-02-26T06:04:57;17.70;60.10
74520;DHT22;63002;48.134;-1.948;2024-02-26T06:07:23;17.70;60.10
74520;DHT22;63002;48.134;-1.948;2024-02-26T06:09:48;17.70;60.00
74520;DHT22;63002;48.134;-1.948;2024-02-26T06:12:14;17.70;60.00
74520;DHT22;63002;48.134;-1.948;2024-02-26T06:14:41;17.70;60.10
74520;DHT22;63002;48.134;-1.948;2024-02-26T06:17:07;17.70;60.00
74520;DHT22;63002;48.134;-1.948;2024-02-26T06:19:33;17.60;60.10
74520;DHT22;63002;48.134;-1.948;2024-02-26T06:21:58;17.60;60.00
74520;DHT22;63002;48.134;-1.948;2024-02-26T06:24:24;17.60;60.10
74520;DHT22;63002;48.134;-1.948;2024-02-26T06:26:49;17.60;60.00
74520;DHT22;63002;48.134;-1.948;2024-02-26T06:29:15;17.60;60.10
74520;DHT22;63002;48.134;-1.948;2024-02-26T06:31:40;17.60;60.10
74520;DHT22;63002;48.134;-1.948;2024-02-26T06:34:06;17.60;60.00
74520;DHT22;63002;48.134;-1.948;2024-02-26T06:36:32;17.60;60.00
74520;DHT22;63002;48.134;-1.948;2024-02-26T06:38:58;17.60;60.00
74520;DHT22;63002;48.134;-1.948;2024-02-26T06:41:24;17.60;60.10
74520;DHT22;63002;48.134;-1.948;2024-02-26T06:43:54;17.60;60.00
74520;DHT22;63002;48.134;-1.948;2024-02-26T06:46:19;17.60;60.00
74520;DHT22;63002;48.134;-1.948;2024-02-26T06:48:45;17.60;59.90
74520;DHT22;63002;48.134;-1.948;2024-02-26T06:51:11;17.60;59.90
74520;DHT22;63002;48.134;-1.948;2024-02-26T06:53:36;17.60;60.00
74520;DHT22;63002;48.134;-1.948;2024-02-26T06:56:02;17.60;59.90
74520;DHT22;63002;48.134;-1.948;2024-02-26T06:58:27;17.60;59.90
74520;DHT22;63002;48.134;-1.948;2024-02-26T07:00:53;17.60;59.90
74520;DHT22;63002;48.134;-1.948;2024-02-26T07:03:18;17.60;59.90
74520;DHT22;63002;48.134;-1.948;2024-02-26T07:05:44;17.60;59.90
74520;DHT22;63002;48.134;-1.948;2024-02-26T07:08:11;17.60;59.90
74520;DHT22;63002;48.134;-1.948;2024-02-26T07:10:36;17.60;59.90
74520;DHT22;63002;48.134;-1.948;2024-02-26T07:13:02;17.50;59.90
74520;DHT22;63002;48.134;-1.948;2024-02-26T07:15:28;17.50;59.80
74520;DHT22;63002;48.134;-1.948;2024-02-26T07:17:53;17.50;59.90
74520;DHT22;63002;48.134;-1.948;2024-02-26T07:20:19;17.60;59.90
74520;DHT22;63002;48.134;-1.948;2024-02-26T07:22:45;17.50;59.80
74520;DHT22;63002;48.134;-1.948;2024-02-26T07:25:10;17.50;59.80
74520;DHT22;63002;48.134;-1.948;2024-02-26T07:27:39;17.50;59.80
74520;DHT22;63002;48.134;-1.948;2024-02-26T07:30:05;17.50;59.80
74520;DHT22;63002;48.134;-1.948;2024-02-26T07:32:31;17.50;59.80
74520;DHT22;63002;48.134;-1.948;2024-02-26T07:34:57;17.50;59.80
74520;DHT22;63002;48.134;-1.948;2024-02-26T07:37:22;17.50;59.70
74520;DHT22;63002;48.134;-1.948;2024-02-26T07:39:48;17.50;59.70
74520;DHT22;63002;48.134;-1.948;2024-02-26T07:42:13;17.50;59.60
74520;DHT22;63002;48.134;-1.948;2024-02-26T07:44:39;17.50;59.50
74520;DHT22;63002;48.134;-1.948;2024-02-26T07:47:08;17.50;59.50
74520;DHT22;63002;48.134;-1.948;2024-02-26T07:49:34;17.40;59.40
74520;DHT22;63002;48.134;-1.948;2024-02-26T07:52:00;17.30;58.20
74520;DHT22;63002;48.134;-1.948;2024-02-26T07:54:25;17.30;58.90
74520;DHT22;63002;48.134;-1.948;2024-02-26T07:56:51;17.30;59.10
74520;DHT22;63002;48.134;-1.948;2024-02-26T07:59:16;17.30;59.00
74520;DHT22;63002;48.134;-1.948;2024-02-26T08:01:42;17.30;59.10
74520;DHT22;63002;48.134;-1.948;2024-02-26T08:04:08;17.30;59.20
74520;DHT22;63002;48.134;-1.948;2024-02-26T08:06:34;17.30;59.10
74520;DHT22;63002;48.134;-1.948;2024-02-26T08:08:59;17.30;59.10
74520;DHT22;63002;48.134;-1.948;2024-02-26T08:11:25;17.30;59.10
74520;DHT22;63002;48.134;-1.948;2024-02-26T08:13:50;17.30;59.00
74520;DHT22;63002;48.134;-1.948;2024-02-26T08:16:16;17.30;59.00
74520;DHT22;63002;48.134;-1.948;2024-02-26T08:18:42;17.30;59.00
74520;DHT22;63002;48.134;-1.948;2024-02-26T08:21:08;17.30;59.10
74520;DHT22;63002;48.134;-1.948;2024-02-26T08:23:34;17.30;59.00
74520;DHT22;63002;48.134;-1.948;2024-02-26T08:25:59;17.30;59.00
74520;DHT22;63002;48.134;-1.948;2024-02-26T08:28:25;17.30;59.00
74520;DHT22;63002;48.134;-1.948;2024-02-26T08:30:50;17.30;59.00
74520;DHT22;63002;48.134;-1.948;2024-02-26T08:33:16;17.30;59.00
74520;DHT22;63002;48.134;-1.948;2024-02-26T08:35:42;17.30;59.00
74520;DHT22;63002;48.134;-1.948;2024-02-26T08:38:08;17.20;59.00
74520;DHT22;63002;48.134;-1.948;2024-02-26T08:40:34;17.20;59.00
74520;DHT22;63002;48.134;-1.948;2024-02-26T08:42:59;17.20;59.00
74520;DHT22;63002;48.134;-1.948;2024-02-26T08:45:25;17.20;59.00
74520;DHT22;63002;48.134;-1.948;2024-02-26T08:47:52;17.20;59.00
74520;DHT22;63002;48.134;-1.948;2024-02-26T08:50:19;17.20;58.90
74520;DHT22;63002;48.134;-1.948;2024-02-26T08:52:45;17.20;58.90
74520;DHT22;63002;48.134;-1.948;2024-02-26T08:55:14;17.20;58.90
74520;DHT22;63002;48.134;-1.948;2024-02-26T08:57:39;17.20;59.00
74520;DHT22;63002;48.134;-1.948;2024-02-26T09:00:05;17.20;58.90
74520;DHT22;63002;48.134;-1.948;2024-02-26T09:02:31;17.20;58.80
74520;DHT22;63002;48.134;-1.948;2024-02-26T09:04:56;17.20;58.80
74520;DHT22;63002;48.134;-1.948;2024-02-26T09:07:22;17.20;58.80
74520;DHT22;63002;48.134;-1.948;2024-02-26T09:09:48;17.20;58.80
74520;DHT22;63002;48.134;-1.948;2024-02-26T09:12:13;17.20;58.80
74520;DHT22;63002;48.134;-1.948;2024-02-26T09:14:39;17.20;58.80
74520;DHT22;63002;48.134;-1.948;2024-02-26T09:17:04;17.20;58.80
74520;DHT22;63002;48.134;-1.948;2024-02-26T09:19:31;17.40;59.20
74520;DHT22;63002;48.134;-1.948;2024-02-26T09:21:56;17.60;58.70
74520;DHT22;63002;48.134;-1.948;2024-02-26T09:24:23;17.70;58.70
74520;DHT22;63002;48.134;-1.948;2024-02-26T09:26:49;17.50;58.90
74520;DHT22;63002;48.134;-1.948;2024-02-26T09:29:15;17.40;59.00
74520;DHT22;63002;48.134;-1.948;2024-02-26T09:31:40;17.30;59.00
74520;DHT22;63002;48.134;-1.948;2024-02-26T09:34:07;17.30;59.10
74520;DHT22;63002;48.134;-1.948;2024-02-26T09:36:33;17.20;59.00
74520;DHT22;63002;48.134;-1.948;2024-02-26T09:38:59;17.20;59.00
74520;DHT22;63002;48.134;-1.948;2024-02-26T09:41:24;17.20;59.00
74520;DHT22;63002;48.134;-1.948;2024-02-26T09:43:53;17.20;59.00
74520;DHT22;63002;48.134;-1.948;2024-02-26T09:46:21;17.20;59.00
74520;DHT22;63002;48.134;-1.948;2024-02-26T09:48:47;17.10;51.40
74520;DHT22;63002;48.134;-1.948;2024-02-26T09:51:13;16.70;57.40
74520;DHT22;63002;48.134;-1.948;2024-02-26T09:53:39;17.00;58.30
74520;DHT22;63002;48.134;-1.948;2024-02-26T09:56:09;17.20;58.20
74520;DHT22;63002;48.134;-1.948;2024-02-26T09:58:38;17.30;58.10
74520;DHT22;63002;48.134;-1.948;2024-02-26T10:01:05;17.40;57.70
74520;DHT22;63002;48.134;-1.948;2024-02-26T10:03:37;17.50;57.70
74520;DHT22;63002;48.134;-1.948;2024-02-26T10:06:04;17.50;57.60
74520;DHT22;63002;48.134;-1.948;2024-02-26T10:08:31;17.60;57.70
74520;DHT22;63002;48.134;-1.948;2024-02-26T10:10:58;17.60;57.90
74520;DHT22;63002;48.134;-1.948;2024-02-26T10:13:24;17.70;57.70
74520;DHT22;63002;48.134;-1.948;2024-02-26T10:15:50;17.80;57.40
74520;DHT22;63002;48.134;-1.948;2024-02-26T10:18:16;17.90;57.30
74520;DHT22;63002;48.134;-1.948;2024-02-26T10:20:50;17.80;57.60
74520;DHT22;63002;48.134;-1.948;2024-02-26T10:23:25;17.60;57.90
74520;DHT22;63002;48.134;-1.948;2024-02-26T10:25:54;17.50;58.10
74520;DHT22;63002;48.134;-1.948;2024-02-26T10:28:20;17.50;58.40
74520;DHT22;63002;48.134;-1.948;2024-02-26T10:30:46;17.40;58.40
74520;DHT22;63002;48.134;-1.948;2024-02-26T10:33:12;17.40;58.50
74520;DHT22;63002;48.134;-1.948;2024-02-26T10:35:39;17.40;58.50
74520;DHT22;63002;48.134;-1.948;2024-02-26T10:38:09;17.40;58.50
74520;DHT22;63002;48.134;-1.948;2024-02-26T10:40:36;17.40;58.50
74520;DHT22;63002;48.134;-1.948;2024-02-26T10:43:02;17.40;58.50
74520;DHT22;63002;48.134;-1.948;2024-02-26T10:45:28;17.40;58.50
74520;DHT22;63002;48.134;-1.948;2024-02-26T10:47:53;17.40;58.50
74520;DHT22;63002;48.134;-1.948;2024-02-26T10:50:19;17.40;58.60
74520;DHT22;63002;48.134;-1.948;2024-02-26T10:52:45;17.40;58.50
74520;DHT22;63002;48.134;-1.948;2024-02-26T10:55:13;17.30;58.50
74520;DHT22;63002;48.134;-1.948;2024-02-26T10:57:40;17.30;58.50
74520;DHT22;63002;48.134;-1.948;2024-02-26T11:00:07;17.30;58.50
74520;DHT22;63002;48.134;-1.948;2024-02-26T11:02:36;17.30;58.60
74520;DHT22;63002;48.134;-1.948;2024-02-26T11:05:05;17.30;58.60
74520;DHT22;63002;48.134;-1.948;2024-02-26T11:07:31;17.30;58.60
74520;DHT22;63002;48.134;-1.948;2024-02-26T11:09:59;17.40;58.70
74520;DHT22;63002;48.134;-1.948;2024-02-26T11:12:24;17.40;58.70
74520;DHT22;63002;48.134;-1.948;2024-02-26T11:14:50;17.40;58.70
74520;DHT22;63002;48.134;-1.948;2024-02-26T11:17:21;17.30;58.70
74520;DHT22;63002;48.134;-1.948;2024-02-26T11:19:47;17.50;58.90
74520;DHT22;63002;48.134;-1.948;2024-02-26T11:22:13;17.50;58.80
74520;DHT22;63002;48.134;-1.948;2024-02-26T11:24:39;17.40;58.80
74520;DHT22;63002;48.134;-1.948;2024-02-26T11:27:06;17.40;58.90
74520;DHT22;63002;48.134;-1.948;2024-02-26T11:29:38;17.40;58.90
74520;DHT22;63002;48.134;-1.948;2024-02-26T11:32:04;17.60;58.60
74520;DHT22;63002;48.134;-1.948;2024-02-26T11:34:30;17.80;58.40
74520;DHT22;63002;48.134;-1.948;2024-02-26T11:36:56;18.00;57.80
74520;DHT22;63002;48.134;-1.948;2024-02-26T11:39:22;18.10;57.60
74520;DHT22;63002;48.134;-1.948;2024-02-26T11:41:48;18.10;57.60
74520;DHT22;63002;48.134;-1.948;2024-02-26T11:44:28;18.10;57.40
74520;DHT22;63002;48.134;-1.948;2024-02-26T11:46:54;18.10;57.20
74520;DHT22;63002;48.134;-1.948;2024-02-26T11:51:56;18.20;57.60
74520;DHT22;63002;48.134;-1.948;2024-02-26T11:54:38;18.20;57.60
74520;DHT22;63002;48.134;-1.948;2024-02-26T11:57:03;18.20;57.50
74520;DHT22;63002;48.134;-1.948;2024-02-26T11:59:38;18.20;57.40
74520;DHT22;63002;48.134;-1.948;2024-02-26T12:02:04;18.20;57.30
74520;DHT22;63002;48.134;-1.948;2024-02-26T12:04:30;18.20;57.30
74520;DHT22;63002;48.134;-1.948;2024-02-26T12:07:04;18.30;57.50
74520;DHT22;63002;48.134;-1.948;2024-02-26T12:09:31;18.30;57.50
74520;DHT22;63002;48.134;-1.948;2024-02-26T12:11:56;18.30;57.40
74520;DHT22;63002;48.134;-1.948;2024-02-26T12:14:24;18.30;57.40
74520;DHT22;63002;48.134;-1.948;2024-02-26T12:16:50;18.30;57.50
74520;DHT22;63002;48.134;-1.948;2024-02-26T12:19:17;18.30;57.30
74520;DHT22;63002;48.134;-1.948;2024-02-26T12:21:42;17.40;50.80
74520;DHT22;63002;48.134;-1.948;2024-02-26T12:24:12;16.90;55.30
74520;DHT22;63002;48.134;-1.948;2024-02-26T12:26:38;17.20;58.10
74520;DHT22;63002;48.134;-1.948;2024-02-26T12:29:04;17.70;58.20
74520;DHT22;63002;48.134;-1.948;2024-02-26T12:31:30;17.60;58.00
74520;DHT22;63002;48.134;-1.948;2024-02-26T12:33:56;17.50;58.10
74520;DHT22;63002;48.134;-1.948;2024-02-26T12:36:22;17.50;58.40
74520;DHT22;63002;48.134;-1.948;2024-02-26T12:38:49;17.50;58.50
74520;DHT22;63002;48.134;-1.948;2024-02-26T12:41:16;17.60;58.00
74520;DHT22;63002;48.134;-1.948;2024-02-26T12:43:42;17.80;59.30
74520;DHT22;63002;48.134;-1.948;2024-02-26T12:46:08;18.00;59.60
74520;DHT22;63002;48.134;-1.948;2024-02-26T12:48:33;17.90;59.50
74520;DHT22;63002;48.134;-1.948;2024-02-26T12:50:59;17.70;59.80
74520;DHT22;63002;48.134;-1.948;2024-02-26T12:53:26;17.70;60.60
74520;DHT22;63002;48.134;-1.948;2024-02-26T12:55:53;17.70;60.90
74520;DHT22;63002;48.134;-1.948;2024-02-26T12:58:19;17.60;60.70
74520;DHT22;63002;48.134;-1.948;2024-02-26T13:00:46;17.60;60.70
74520;DHT22;63002;48.134;-1.948;2024-02-26T13:03:12;17.50;60.70
74520;DHT22;63002;48.134;-1.948;2024-02-26T13:05:39;17.50;60.50
74520;DHT22;63002;48.134;-1.948;2024-02-26T13:08:06;17.50;60.40
74520;DHT22;63002;48.134;-1.948;2024-02-26T13:10:32;17.50;60.30
74520;DHT22;63002;48.134;-1.948;2024-02-26T13:13:01;17.50;60.20
74520;DHT22;63002;48.134;-1.948;2024-02-26T13:15:27;17.40;58.50
74520;DHT22;63002;48.134;-1.948;2024-02-26T13:17:53;17.40;59.00
74520;DHT22;63002;48.134;-1.948;2024-02-26T13:20:25;17.40;59.20
74520;DHT22;63002;48.134;-1.948;2024-02-26T13:22:51;17.30;50.70
74520;DHT22;63002;48.134;-1.948;2024-02-26T13:25:20;16.60;56.30
74520;DHT22;63002;48.134;-1.948;2024-02-26T13:27:46;16.80;57.90
74520;DHT22;63002;48.134;-1.948;2024-02-26T13:30:11;17.00;57.10
74520;DHT22;63002;48.134;-1.948;2024-02-26T13:32:38;17.10;58.00
74520;DHT22;63002;48.134;-1.948;2024-02-26T13:35:11;17.20;58.60
74520;DHT22;63002;48.134;-1.948;2024-02-26T13:37:37;17.20;59.00
74520;DHT22;63002;48.134;-1.948;2024-02-26T13:40:07;17.10;55.50
74520;DHT22;63002;48.134;-1.948;2024-02-26T13:42:34;17.00;58.10
74520;DHT22;63002;48.134;-1.948;2024-02-26T13:45:00;17.10;58.10
74520;DHT22;63002;48.134;-1.948;2024-02-26T13:47:25;17.20;58.30
74520;DHT22;63002;48.134;-1.948;2024-02-26T13:49:51;17.20;58.70
74520;DHT22;63002;48.134;-1.948;2024-02-26T13:52:17;17.20;58.70
74520;DHT22;63002;48.134;-1.948;2024-02-26T13:54:43;17.30;58.70
74520;DHT22;63002;48.134;-1.948;2024-02-26T13:57:08;17.30;58.90
74520;DHT22;63002;48.134;-1.948;2024-02-26T13:59:34;17.30;58.90
74520;DHT22;63002;48.134;-1.948;2024-02-26T14:02:00;17.30;59.00
74520;DHT22;63002;48.134;-1.948;2024-02-26T14:04:25;17.30;58.90
74520;DHT22;63002;48.134;-1.948;2024-02-26T14:06:51;17.30;58.90
74520;DHT22;63002;48.134;-1.948;2024-02-26T14:09:17;17.40;58.80
74520;DHT22;63002;48.134;-1.948;2024-02-26T14:11:47;17.50;58.90
74520;DHT22;63002;48.134;-1.948;2024-02-26T14:14:13;17.40;58.90
74520;DHT22;63002;48.134;-1.948;2024-02-26T14:16:40;17.40;59.10
74520;DHT22;63002;48.134;-1.948;2024-02-26T14:19:06;17.40;59.10
74520;DHT22;63002;48.134;-1.948;2024-02-26T14:21:31;17.30;59.00
74520;DHT22;63002;48.134;-1.948;2024-02-26T14:23:57;17.30;59.10
74520;DHT22;63002;48.134;-1.948;2024-02-26T14:26:23;17.30;59.00
74520;DHT22;63002;48.134;-1.948;2024-02-26T14:28:49;17.30;58.80
74520;DHT22;63002;48.134;-1.948;2024-02-26T14:31:17;17.30;58.90
74520;DHT22;63002;48.134;-1.948;2024-02-26T14:33:43;17.30;58.90
74520;DHT22;63002;48.134;-1.948;2024-02-26T14:36:08;17.30;58.90
74520;DHT22;63002;48.134;-1.948;2024-02-26T14:38:34;17.30;58.90
74520;DHT22;63002;48.134;-1.948;2024-02-26T14:41:00;17.30;58.80
74520;DHT22;63002;48.134;-1.948;2024-02-26T14:43:25;17.30;58.90
74520;DHT22;63002;48.134;-1.948;2024-02-26T14:45:51;17.30;58.90
74520;DHT22;63002;48.134;-1.948;2024-02-26T14:48:16;17.30;58.80
74520;DHT22;63002;48.134;-1.948;2024-02-26T14:50:42;17.30;58.90
74520;DHT22;63002;48.134;-1.948;2024-02-26T14:53:07;17.30;58.90
74520;DHT22;63002;48.134;-1.948;2024-02-26T14:55:33;17.30;58.80
74520;DHT22;63002;48.134;-1.948;2024-02-26T14:57:59;17.30;58.60
74520;DHT22;63002;48.134;-1.948;2024-02-26T15:00:25;17.20;58.60
74520;DHT22;63002;48.134;-1.948;2024-02-26T15:02:50;17.30;58.50
74520;DHT22;63002;48.134;-1.948;2024-02-26T15:05:17;17.80;59.20
74520;DHT22;63002;48.134;-1.948;2024-02-26T15:07:45;18.00;58.50
74520;DHT22;63002;48.134;-1.948;2024-02-26T15:10:10;17.80;58.60
74520;DHT22;63002;48.134;-1.948;2024-02-26T15:12:36;17.70;59.10
74520;DHT22;63002;48.134;-1.948;2024-02-26T15:15:01;17.60;59.30
74520;DHT22;63002;48.134;-1.948;2024-02-26T15:17:27;17.50;59.40
74520;DHT22;63002;48.134;-1.948;2024-02-26T15:19:59;17.70;59.10
74520;DHT22;63002;48.134;-1.948;2024-02-26T15:22:25;17.90;58.20
74520;DHT22;63002;48.134;-1.948;2024-02-26T15:24:51;18.00;58.60
74520;DHT22;63002;48.134;-1.948;2024-02-26T15:27:17;18.00;58.30
74520;DHT22;63002;48.134;-1.948;2024-02-26T15:29:43;18.10;58.40
74520;DHT22;63002;48.134;-1.948;2024-02-26T15:32:08;18.10;58.10
74520;DHT22;63002;48.134;-1.948;2024-02-26T15:34:34;18.10;58.00
74520;DHT22;63002;48.134;-1.948;2024-02-26T15:36:59;18.20;57.60
74520;DHT22;63002;48.134;-1.948;2024-02-26T15:39:26;18.20;58.20
74520;DHT22;63002;48.134;-1.948;2024-02-26T15:41:52;18.20;58.10
74520;DHT22;63002;48.134;-1.948;2024-02-26T15:44:19;18.10;58.50
74520;DHT22;63002;48.134;-1.948;2024-02-26T15:46:44;17.80;50.90
74520;DHT22;63002;48.134;-1.948;2024-02-26T15:49:10;17.40;54.50
74520;DHT22;63002;48.134;-1.948;2024-02-26T15:51:36;17.40;56.60
74520;DHT22;63002;48.134;-1.948;2024-02-26T15:54:01;17.50;56.60
74520;DHT22;63002;48.134;-1.948;2024-02-26T15:56:27;17.50;57.50
74520;DHT22;63002;48.134;-1.948;2024-02-26T15:58:54;17.50;58.20
74520;DHT22;63002;48.134;-1.948;2024-02-26T16:01:20;17.50;58.40
74520;DHT22;63002;48.134;-1.948;2024-02-26T16:03:46;17.50;58.50
74520;DHT22;63002;48.134;-1.948;2024-02-26T16:06:20;17.50;58.70
74520;DHT22;63002;48.134;-1.948;2024-02-26T16:08:47;17.50;58.70
74520;DHT22;63002;48.134;-1.948;2024-02-26T16:11:13;17.50;58.60
74520;DHT22;63002;48.134;-1.948;2024-02-26T16:13:38;17.40;58.70
74520;DHT22;63002;48.134;-1.948;2024-02-26T16:16:06;17.40;58.70
74520;DHT22;63002;48.134;-1.948;2024-02-26T16:18:33;17.40;58.60
74520;DHT22;63002;48.134;-1.948;2024-02-26T16:20:59;17.40;58.70
74520;DHT22;63002;48.134;-1.948;2024-02-26T16:23:27;17.40;58.70
74520;DHT22;63002;48.134;-1.948;2024-02-26T16:25:53;17.40;58.80
74520;DHT22;63002;48.134;-1.948;2024-02-26T16:28:19;17.40;58.50
74520;DHT22;63002;48.134;-1.948;2024-02-26T16:30:47;17.50;58.50
74520;DHT22;63002;48.134;-1.948;2024-02-26T16:33:13;17.40;58.50
74520;DHT22;63002;48.134;-1.948;2024-02-26T16:35:38;17.40;58.50
74520;DHT22;63002;48.134;-1.948;2024-02-26T16:38:04;17.40;58.50
74520;DHT22;63002;48.134;-1.948;2024-02-26T16:40:29;17.40;58.50
74520;DHT22;63002;48.134;-1.948;2024-02-26T16:42:55;17.40;58.50
74520;DHT22;63002;48.134;-1.948;2024-02-26T16:45:21;16.90;55.20
74520;DHT22;63002;48.134;-1.948;2024-02-26T16:47:48;17.00;57.00
74520;DHT22;63002;48.134;-1.948;2024-02-26T16:50:13;17.10;57.20
74520;DHT22;63002;48.134;-1.948;2024-02-26T16:52:39;17.10;57.10
74520;DHT22;63002;48.134;-1.948;2024-02-26T16:55:05;17.20;57.50
74520;DHT22;63002;48.134;-1.948;2024-02-26T16:57:30;17.20;57.80
74520;DHT22;63002;48.134;-1.948;2024-02-26T16:59:56;17.20;57.80
74520;DHT22;63002;48.134;-1.948;2024-02-26T17:02:21;17.50;58.20
74520;DHT22;63002;48.134;-1.948;2024-02-26T17:04:47;17.50;57.80
74520;DHT22;63002;48.134;-1.948;2024-02-26T17:07:13;17.40;58.20
74520;DHT22;63002;48.134;-1.948;2024-02-26T17:09:41;17.30;58.20
74520;DHT22;63002;48.134;-1.948;2024-02-26T17:12:07;17.30;58.10
74520;DHT22;63002;48.134;-1.948;2024-02-26T17:14:35;17.30;58.10
74520;DHT22;63002;48.134;-1.948;2024-02-26T17:17:01;17.30;58.00
74520;DHT22;63002;48.134;-1.948;2024-02-26T17:19:28;17.20;58.00
74520;DHT22;63002;48.134;-1.948;2024-02-26T17:21:54;17.20;58.10
74520;DHT22;63002;48.134;-1.948;2024-02-26T17:24:19;17.20;58.10
74520;DHT22;63002;48.134;-1.948;2024-02-26T17:26:46;17.20;58.00
74520;DHT22;63002;48.134;-1.948;2024-02-26T17:29:12;17.20;58.10
74520;DHT22;63002;48.134;-1.948;2024-02-26T17:31:38;17.20;58.10
74520;DHT22;63002;48.134;-1.948;2024-02-26T17:34:08;17.20;58.10
74520;DHT22;63002;48.134;-1.948;2024-02-26T17:36:34;17.20;58.20
74520;DHT22;63002;48.134;-1.948;2024-02-26T17:38:59;17.20;58.10
74520;DHT22;63002;48.134;-1.948;2024-02-26T17:41:25;17.20;58.10
74520;DHT22;63002;48.134;-1.948;2024-02-26T17:43:50;17.20;58.20
74520;DHT22;63002;48.134;-1.948;2024-02-26T17:46:16;17.20;58.20
74520;DHT22;63002;48.134;-1.948;2024-02-26T17:48:42;17.20;58.20
74520;DHT22;63002;48.134;-1.948;2024-02-26T17:51:08;17.20;58.30
74520;DHT22;63002;48.134;-1.948;2024-02-26T17:53:34;17.20;58.20
74520;DHT22;63002;48.134;-1.948;2024-02-26T17:55:59;17.20;58.30
74520;DHT22;63002;48.134;-1.948;2024-02-26T17:58:31;17.20;58.30
74520;DHT22;63002;48.134;-1.948;2024-02-26T18:00:57;17.20;58.20
74520;DHT22;63002;48.134;-1.948;2024-02-26T18:03:23;17.10;58.20
74520;DHT22;63002;48.134;-1.948;2024-02-26T18:05:48;17.10;58.20
74520;DHT22;63002;48.134;-1.948;2024-02-26T18:08:14;17.10;58.20
74520;DHT22;63002;48.134;-1.948;2024-02-26T18:10:39;17.10;58.20
74520;DHT22;63002;48.134;-1.948;2024-02-26T18:13:05;17.10;58.30
74520;DHT22;63002;48.134;-1.948;2024-02-26T18:15:31;17.20;58.40
74520;DHT22;63002;48.134;-1.948;2024-02-26T18:17:57;17.10;58.40
74520;DHT22;63002;48.134;-1.948;2024-02-26T18:20:22;17.10;58.30
74520;DHT22;63002;48.134;-1.948;2024-02-26T18:22:48;17.10;58.30
74520;DHT22;63002;48.134;-1.948;2024-02-26T18:25:13;17.10;58.40
74520;DHT22;63002;48.134;-1.948;2024-02-26T18:27:39;17.10;58.30
74520;DHT22;63002;48.134;-1.948;2024-02-26T18:30:06;17.10;58.30
74520;DHT22;63002;48.134;-1.948;2024-02-26T18:32:32;17.10;58.30
74520;DHT22;63002;48.134;-1.948;2024-02-26T18:34:58;17.10;58.30
74520;DHT22;63002;48.134;-1.948;2024-02-26T18:37:24;17.10;58.40
74520;DHT22;63002;48.134;-1.948;2024-02-26T18:39:50;17.10;58.30
74520;DHT22;63002;48.134;-1.948;2024-02-26T18:42:16;17.10;58.40
74520;DHT22;63002;48.134;-1.948;2024-02-26T18:44:46;17.10;58.30
74520;DHT22;63002;48.134;-1.948;2024-02-26T18:47:12;17.10;58.30
74520;DHT22;63002;48.134;-1.948;2024-02-26T18:49:40;17.10;58.30
74520;DHT22;63002;48.134;-1.948;2024-02-26T18:52:07;17.10;58.30
74520;DHT22;63002;48.134;-1.948;2024-02-26T18:54:32;17.10;58.40
74520;DHT22;63002;48.134;-1.948;2024-02-26T18:56:58;17.10;58.40
74520;DHT22;63002;48.134;-1.948;2024-02-26T18:59:23;16.80;55.30
74520;DHT22;63002;48.134;-1.948;2024-02-26T19:01:49;16.80;57.30
74520;DHT22;63002;48.134;-1.948;2024-02-26T19:04:15;16.80;55.50
74520;DHT22;63002;48.134;-1.948;2024-02-26T19:06:43;16.80;56.30
74520;DHT22;63002;48.134;-1.948;2024-02-26T19:09:09;16.90;56.70
74520;DHT22;63002;48.134;-1.948;2024-02-26T19:11:34;16.90;56.80
74520;DHT22;63002;48.134;-1.948;2024-02-26T19:14:00;17.00;56.90
74520;DHT22;63002;48.134;-1.948;2024-02-26T19:16:26;17.10;56.90
74520;DHT22;63002;48.134;-1.948;2024-02-26T19:18:59;17.00;57.00
74520;DHT22;63002;48.134;-1.948;2024-02-26T19:21:25;17.10;56.90
74520;DHT22;63002;48.134;-1.948;2024-02-26T19:23:50;17.10;56.90
74520;DHT22;63002;48.134;-1.948;2024-02-26T19:26:16;17.10;57.00
74520;DHT22;63002;48.134;-1.948;2024-02-26T19:28:42;16.40;54.30
74520;DHT22;63002;48.134;-1.948;2024-02-26T19:31:10;16.50;55.10
74520;DHT22;63002;48.134;-1.948;2024-02-26T19:33:37;16.70;55.10
74520;DHT22;63002;48.134;-1.948;2024-02-26T19:36:03;16.80;55.60
74520;DHT22;63002;48.134;-1.948;2024-02-26T19:38:28;16.90;56.10
74520;DHT22;63002;48.134;-1.948;2024-02-26T19:40:54;16.90;56.60
74520;DHT22;63002;48.134;-1.948;2024-02-26T19:43:19;16.90;56.50
74520;DHT22;63002;48.134;-1.948;2024-02-26T19:45:45;16.90;56.60
74520;DHT22;63002;48.134;-1.948;2024-02-26T19:48:11;16.90;56.90
74520;DHT22;63002;48.134;-1.948;2024-02-26T19:50:37;16.90;56.80
74520;DHT22;63002;48.134;-1.948;2024-02-26T19:53:03;16.90;56.90
74520;DHT22;63002;48.134;-1.948;2024-02-26T19:55:28;16.90;53.70
74520;DHT22;63002;48.134;-1.948;2024-02-26T19:57:54;16.40;52.60
74520;DHT22;63002;48.134;-1.948;2024-02-26T20:00:20;16.50;54.70
74520;DHT22;63002;48.134;-1.948;2024-02-26T20:02:45;16.70;54.90
74520;DHT22;63002;48.134;-1.948;2024-02-26T20:05:12;16.80;55.50
74520;DHT22;63002;48.134;-1.948;2024-02-26T20:07:37;16.80;55.60
74520;DHT22;63002;48.134;-1.948;2024-02-26T20:10:03;16.80;48.30
74520;DHT22;63002;48.134;-1.948;2024-02-26T20:12:29;16.40;53.60
74520;DHT22;63002;48.134;-1.948;2024-02-26T20:14:54;16.50;54.50
74520;DHT22;63002;48.134;-1.948;2024-02-26T20:17:20;16.60;54.50
74520;DHT22;63002;48.134;-1.948;2024-02-26T20:19:47;16.70;54.70
74520;DHT22;63002;48.134;-1.948;2024-02-26T20:22:12;16.80;55.10
74520;DHT22;63002;48.134;-1.948;2024-02-26T20:24:39;16.90;55.50
74520;DHT22;63002;48.134;-1.948;2024-02-26T20:27:05;17.00;56.10
74520;DHT22;63002;48.134;-1.948;2024-02-26T20:29:31;17.10;56.00
74520;DHT22;63002;48.134;-1.948;2024-02-26T20:31:58;17.20;55.90
74520;DHT22;63002;48.134;-1.948;2024-02-26T20:34:26;17.20;56.30
74520;DHT22;63002;48.134;-1.948;2024-02-26T20:36:51;17.10;56.60
74520;DHT22;63002;48.134;-1.948;2024-02-26T20:39:18;17.10;56.80
74520;DHT22;63002;48.134;-1.948;2024-02-26T20:41:43;17.10;57.10
74520;DHT22;63002;48.134;-1.948;2024-02-26T20:44:09;17.10;57.20
74520;DHT22;63002;48.134;-1.948;2024-02-26T20:46:38;17.10;57.30
74520;DHT22;63002;48.134;-1.948;2024-02-26T20:49:04;17.00;57.30
74520;DHT22;63002;48.134;-1.948;2024-02-26T20:51:30;17.10;57.30
74520;DHT22;63002;48.134;-1.948;2024-02-26T20:53:56;17.00;57.30
74520;DHT22;63002;48.134;-1.948;2024-02-26T20:56:22;16.80;54.50
74520;DHT22;63002;48.134;-1.948;2024-02-26T20:58:48;16.90;55.80
74520;DHT22;63002;48.134;-1.948;2024-02-26T21:01:13;16.90;56.60
74520;DHT22;63002;48.134;-1.948;2024-02-26T21:03:39;17.00;56.90
74520;DHT22;63002;48.134;-1.948;2024-02-26T21:06:04;17.00;56.80
74520;DHT22;63002;48.134;-1.948;2024-02-26T21:08:30;17.00;56.00
74520;DHT22;63002;48.134;-1.948;2024-02-26T21:10:56;17.30;57.70
74520;DHT22;63002;48.134;-1.948;2024-02-26T21:13:22;17.60;57.50